Main page


Airports :

Bordeaux, France

Bordeaux–Mérignac Airport

latitude: 44-50N, longitude: 000-42W, elevation: 49 m

Current weather observation

The report was made 14 minutes ago, at 06:00 UTC
Wind 13 kt from the North/Northeast
Temperature 3°C
Humidity 81%
Pressure 1013 hPa
Visibility 10 km or more
Overcast at a height of 1800 ft

METAR: LFBD 200600Z AUTO 02013KT 9999 OVC018 03/M00 Q1013 TEMPO BKN009

Time: 07:14 (06:14 UTC)


The report was made 1 hour and 14 minutes ago, at 05:00 UTC
Forecast valid from 20 at 06 UTC to 21 at 12 UTC
Wind 10 kt from the North
Visibility 10 km or more
Broken clouds at a height of 1500 ft
Probability 40% :
from 20 at 06 UTC to 20 at 09 UTC
Broken clouds at a height of 900 ft
from 20 at 10 UTC to 20 at 12 UTC
Broken clouds at a height of 4000 ft

TAF: LFBD 200500Z 2006/2112 01010KT 9999 BKN015 PROB40 TEMPO 2006/2009 BKN009 BECMG 2010/2012 BKN040 TX09/2014Z TN02/2006Z

Weather observations and forecasts of more than 4000 airports (METAR and TAF reports).

The available stations are represented by yellow and red dots on the map.

Hover mouse over dot to see the name of the station.

Then click to see weather observations and forecasts.

To change the map : click on the green buttons with a black cross to zoom in, on the green button with a dash to zoom out, or on the green arrows for adjacent maps.